sensor_id;sensor_type;location;lat;lon;timestamp;P1;durP1;ratioP1;P2;durP2;ratioP2
16820;SDS011;8527;49.740;6.604;2023-05-15T00:04:51;15.10;;;8.82;;
16820;SDS011;8527;49.740;6.604;2023-05-15T00:09:50;11.52;;;8.45;;
16820;SDS011;8527;49.740;6.604;2023-05-15T00:14:48;11.73;;;8.30;;
16820;SDS011;8527;49.740;6.604;2023-05-15T00:19:55;12.98;;;8.23;;
16820;SDS011;8527;49.740;6.604;2023-05-15T00:24:54;12.73;;;9.18;;
16820;SDS011;8527;49.740;6.604;2023-05-15T00:29:56;10.77;;;8.25;;
16820;SDS011;8527;49.740;6.604;2023-05-15T00:34:57;12.82;;;9.02;;
16820;SDS011;8527;49.740;6.604;2023-05-15T00:39:56;10.55;;;9.20;;
16820;SDS011;8527;49.740;6.604;2023-05-15T00:44:54;14.23;;;9.80;;
16820;SDS011;8527;49.740;6.604;2023-05-15T00:49:53;13.68;;;9.85;;
16820;SDS011;8527;49.740;6.604;2023-05-15T00:54:58;13.55;;;9.45;;
16820;SDS011;8527;49.740;6.604;2023-05-15T00:59:57;11.65;;;9.02;;
16820;SDS011;8527;49.740;6.604;2023-05-15T01:04:58;14.70;;;10.30;;
16820;SDS011;8527;49.740;6.604;2023-05-15T01:10:04;16.35;;;8.90;;
16820;SDS011;8527;49.740;6.604;2023-05-15T01:15:05;12.77;;;9.55;;
16820;SDS011;8527;49.740;6.604;2023-05-15T01:20:05;14.77;;;9.65;;
16820;SDS011;8527;49.740;6.604;2023-05-15T01:30:50;15.32;;;10.77;;
16820;SDS011;8527;49.740;6.604;2023-05-15T01:36:06;16.35;;;10.65;;
16820;SDS011;8527;49.740;6.604;2023-05-15T01:41:18;13.48;;;9.85;;
16820;SDS011;8527;49.740;6.604;2023-05-15T01:46:26;12.60;;;9.98;;
16820;SDS011;8527;49.740;6.604;2023-05-15T01:51:31;12.88;;;10.30;;
16820;SDS011;8527;49.740;6.604;2023-05-15T01:56:37;15.05;;;9.27;;
16820;SDS011;8527;49.740;6.604;2023-05-15T02:01:42;14.15;;;9.20;;
16820;SDS011;8527;49.740;6.604;2023-05-15T02:06:42;18.40;;;11.15;;
16820;SDS011;8527;49.740;6.604;2023-05-15T02:11:47;16.58;;;9.93;;
16820;SDS011;8527;49.740;6.604;2023-05-15T02:16:49;13.20;;;9.68;;
16820;SDS011;8527;49.740;6.604;2023-05-15T02:21:50;15.00;;;10.38;;
16820;SDS011;8527;49.740;6.604;2023-05-15T02:26:50;13.52;;;9.80;;
16820;SDS011;8527;49.740;6.604;2023-05-15T02:32:01;16.15;;;11.80;;
16820;SDS011;8527;49.740;6.604;2023-05-15T02:37:07;15.25;;;11.25;;
16820;SDS011;8527;49.740;6.604;2023-05-15T02:42:13;15.00;;;11.02;;
16820;SDS011;8527;49.740;6.604;2023-05-15T02:47:15;15.60;;;11.25;;
16820;SDS011;8527;49.740;6.604;2023-05-15T02:52:20;15.32;;;11.05;;
16820;SDS011;8527;49.740;6.604;2023-05-15T02:57:20;12.73;;;10.95;;
16820;SDS011;8527;49.740;6.604;2023-05-15T03:02:24;20.95;;;10.55;;
16820;SDS011;8527;49.740;6.604;2023-05-15T03:07:25;17.50;;;12.05;;
16820;SDS011;8527;49.740;6.604;2023-05-15T03:12:24;17.02;;;10.93;;
16820;SDS011;8527;49.740;6.604;2023-05-15T03:17:30;13.68;;;10.48;;
16820;SDS011;8527;49.740;6.604;2023-05-15T03:22:29;17.33;;;11.00;;
16820;SDS011;8527;49.740;6.604;2023-05-15T03:27:27;14.25;;;10.60;;
16820;SDS011;8527;49.740;6.604;2023-05-15T03:32:33;16.23;;;11.40;;
16820;SDS011;8527;49.740;6.604;2023-05-15T03:37:32;13.75;;;10.60;;
16820;SDS011;8527;49.740;6.604;2023-05-15T03:42:33;17.95;;;10.82;;
16820;SDS011;8527;49.740;6.604;2023-05-15T03:47:37;16.88;;;11.13;;
16820;SDS011;8527;49.740;6.604;2023-05-15T03:52:36;15.60;;;10.90;;
16820;SDS011;8527;49.740;6.604;2023-05-15T03:57:37;12.95;;;10.25;;
16820;SDS011;8527;49.740;6.604;2023-05-15T04:02:42;17.42;;;11.80;;
16820;SDS011;8527;49.740;6.604;2023-05-15T04:07:42;17.02;;;10.90;;
16820;SDS011;8527;49.740;6.604;2023-05-15T04:12:40;16.08;;;11.90;;
16820;SDS011;8527;49.740;6.604;2023-05-15T04:17:39;15.32;;;11.48;;
16820;SDS011;8527;49.740;6.604;2023-05-15T04:22:40;15.18;;;11.23;;
16820;SDS011;8527;49.740;6.604;2023-05-15T04:27:39;14.18;;;10.93;;
16820;SDS011;8527;49.740;6.604;2023-05-15T04:32:39;16.48;;;11.82;;
16820;SDS011;8527;49.740;6.604;2023-05-15T04:37:40;18.58;;;12.63;;
16820;SDS011;8527;49.740;6.604;2023-05-15T04:42:39;14.63;;;10.98;;
16820;SDS011;8527;49.740;6.604;2023-05-15T04:47:37;17.05;;;12.32;;
16820;SDS011;8527;49.740;6.604;2023-05-15T04:52:41;18.13;;;11.40;;
16820;SDS011;8527;49.740;6.604;2023-05-15T04:57:40;14.15;;;11.13;;
16820;SDS011;8527;49.740;6.604;2023-05-15T05:02:38;17.70;;;11.57;;
16820;SDS011;8527;49.740;6.604;2023-05-15T05:07:42;15.52;;;10.82;;
16820;SDS011;8527;49.740;6.604;2023-05-15T05:12:40;18.92;;;10.98;;
16820;SDS011;8527;49.740;6.604;2023-05-15T05:17:39;14.50;;;10.32;;
16820;SDS011;8527;49.740;6.604;2023-05-15T05:22:37;16.48;;;10.82;;
16820;SDS011;8527;49.740;6.604;2023-05-15T05:27:39;14.85;;;11.15;;
16820;SDS011;8527;49.740;6.604;2023-05-15T05:32:37;17.08;;;10.60;;
16820;SDS011;8527;49.740;6.604;2023-05-15T05:37:38;17.02;;;11.60;;
16820;SDS011;8527;49.740;6.604;2023-05-15T05:42:45;16.92;;;11.18;;
16820;SDS011;8527;49.740;6.604;2023-05-15T05:47:43;14.50;;;12.02;;
16820;SDS011;8527;49.740;6.604;2023-05-15T05:52:45;15.32;;;11.63;;
16820;SDS011;8527;49.740;6.604;2023-05-15T05:57:49;18.20;;;12.18;;
16820;SDS011;8527;49.740;6.604;2023-05-15T06:02:47;13.75;;;11.23;;
16820;SDS011;8527;49.740;6.604;2023-05-15T06:07:46;17.77;;;12.50;;
16820;SDS011;8527;49.740;6.604;2023-05-15T06:12:45;15.38;;;11.02;;
16820;SDS011;8527;49.740;6.604;2023-05-15T06:17:46;18.48;;;11.32;;
16820;SDS011;8527;49.740;6.604;2023-05-15T06:22:47;18.95;;;11.13;;
16820;SDS011;8527;49.740;6.604;2023-05-15T06:27:48;19.33;;;11.88;;
16820;SDS011;8527;49.740;6.604;2023-05-15T06:32:48;18.08;;;11.95;;
16820;SDS011;8527;49.740;6.604;2023-05-15T06:37:47;15.32;;;12.05;;
16820;SDS011;8527;49.740;6.604;2023-05-15T06:42:47;21.13;;;14.10;;
16820;SDS011;8527;49.740;6.604;2023-05-15T06:47:45;19.20;;;15.20;;
16820;SDS011;8527;49.740;6.604;2023-05-15T06:52:46;20.33;;;14.60;;
16820;SDS011;8527;49.740;6.604;2023-05-15T06:57:45;22.75;;;14.48;;
16820;SDS011;8527;49.740;6.604;2023-05-15T07:02:45;22.55;;;14.90;;
16820;SDS011;8527;49.740;6.604;2023-05-15T07:07:46;21.48;;;15.38;;
16820;SDS011;8527;49.740;6.604;2023-05-15T07:12:44;26.00;;;15.40;;
16820;SDS011;8527;49.740;6.604;2023-05-15T07:17:48;26.73;;;14.95;;
16820;SDS011;8527;49.740;6.604;2023-05-15T07:22:51;25.63;;;17.90;;
16820;SDS011;8527;49.740;6.604;2023-05-15T07:27:49;27.60;;;18.33;;
16820;SDS011;8527;49.740;6.604;2023-05-15T07:32:48;23.33;;;17.02;;
16820;SDS011;8527;49.740;6.604;2023-05-15T07:37:46;26.27;;;18.80;;
16820;SDS011;8527;49.740;6.604;2023-05-15T07:42:50;30.30;;;18.35;;
16820;SDS011;8527;49.740;6.604;2023-05-15T07:47:49;25.80;;;18.73;;
16820;SDS011;8527;49.740;6.604;2023-05-15T07:52:47;26.42;;;18.63;;
16820;SDS011;8527;49.740;6.604;2023-05-15T07:57:46;24.00;;;17.38;;
16820;SDS011;8527;49.740;6.604;2023-05-15T08:02:49;24.38;;;16.48;;
16820;SDS011;8527;49.740;6.604;2023-05-15T08:07:50;27.70;;;20.83;;
16820;SDS011;8527;49.740;6.604;2023-05-15T08:12:48;28.95;;;19.70;;
16820;SDS011;8527;49.740;6.604;2023-05-15T08:17:49;21.77;;;17.23;;
16820;SDS011;8527;49.740;6.604;2023-05-15T08:22:53;25.05;;;18.00;;
16820;SDS011;8527;49.740;6.604;2023-05-15T08:27:54;27.38;;;19.27;;
16820;SDS011;8527;49.740;6.604;2023-05-15T08:32:55;25.40;;;17.98;;
16820;SDS011;8527;49.740;6.604;2023-05-15T08:37:53;31.48;;;20.05;;
16820;SDS011;8527;49.740;6.604;2023-05-15T08:42:52;24.77;;;18.55;;
16820;SDS011;8527;49.740;6.604;2023-05-15T08:48:03;26.13;;;17.15;;
16820;SDS011;8527;49.740;6.604;2023-05-15T08:53:07;26.25;;;19.67;;
16820;SDS011;8527;49.740;6.604;2023-05-15T08:58:07;29.92;;;19.85;;
16820;SDS011;8527;49.740;6.604;2023-05-15T09:03:12;28.70;;;19.15;;
16820;SDS011;8527;49.740;6.604;2023-05-15T09:08:13;29.33;;;19.50;;
16820;SDS011;8527;49.740;6.604;2023-05-15T09:13:14;27.63;;;18.35;;
16820;SDS011;8527;49.740;6.604;2023-05-15T09:18:18;28.98;;;18.35;;
16820;SDS011;8527;49.740;6.604;2023-05-15T09:23:21;25.88;;;17.80;;
16820;SDS011;8527;49.740;6.604;2023-05-15T09:28:24;31.52;;;18.35;;
16820;SDS011;8527;49.740;6.604;2023-05-15T09:33:33;28.40;;;17.98;;
16820;SDS011;8527;49.740;6.604;2023-05-15T09:38:32;25.05;;;18.23;;
16820;SDS011;8527;49.740;6.604;2023-05-15T09:43:33;27.38;;;18.10;;
16820;SDS011;8527;49.740;6.604;2023-05-15T09:48:35;26.10;;;18.38;;
16820;SDS011;8527;49.740;6.604;2023-05-15T09:53:35;23.98;;;17.45;;
16820;SDS011;8527;49.740;6.604;2023-05-15T09:58:37;25.33;;;16.73;;
16820;SDS011;8527;49.740;6.604;2023-05-15T10:04:01;18.45;;;15.05;;
16820;SDS011;8527;49.740;6.604;2023-05-15T10:09:03;20.10;;;13.85;;
16820;SDS011;8527;49.740;6.604;2023-05-15T10:14:06;15.65;;;11.90;;
16820;SDS011;8527;49.740;6.604;2023-05-15T10:19:08;19.25;;;12.15;;
16820;SDS011;8527;49.740;6.604;2023-05-15T10:24:14;13.98;;;9.98;;
16820;SDS011;8527;49.740;6.604;2023-05-15T10:29:17;13.82;;;9.43;;
16820;SDS011;8527;49.740;6.604;2023-05-15T10:34:22;14.02;;;9.38;;
16820;SDS011;8527;49.740;6.604;2023-05-15T10:39:21;11.85;;;7.97;;
16820;SDS011;8527;49.740;6.604;2023-05-15T10:44:21;12.75;;;10.13;;
16820;SDS011;8527;49.740;6.604;2023-05-15T10:49:23;12.65;;;8.93;;
16820;SDS011;8527;49.740;6.604;2023-05-15T10:54:23;9.88;;;7.10;;
16820;SDS011;8527;49.740;6.604;2023-05-15T10:59:22;11.23;;;6.63;;
16820;SDS011;8527;49.740;6.604;2023-05-15T11:04:31;8.55;;;6.50;;
16820;SDS011;8527;49.740;6.604;2023-05-15T11:09:39;7.57;;;6.45;;
16820;SDS011;8527;49.740;6.604;2023-05-15T11:14:39;11.32;;;5.05;;
16820;SDS011;8527;49.740;6.604;2023-05-15T11:24:57;9.88;;;4.80;;
16820;SDS011;8527;49.740;6.604;2023-05-15T11:30:13;11.20;;;5.82;;
16820;SDS011;8527;49.740;6.604;2023-05-15T11:35:20;10.80;;;6.40;;
16820;SDS011;8527;49.740;6.604;2023-05-15T11:40:20;12.40;;;7.10;;
16820;SDS011;8527;49.740;6.604;2023-05-15T11:45:21;10.45;;;6.50;;
16820;SDS011;8527;49.740;6.604;2023-05-15T11:50:22;24.08;;;6.95;;
16820;SDS011;8527;49.740;6.604;2023-05-15T11:55:24;11.57;;;6.28;;
16820;SDS011;8527;49.740;6.604;2023-05-15T12:00:23;12.50;;;6.43;;
16820;SDS011;8527;49.740;6.604;2023-05-15T12:05:24;9.02;;;6.20;;
16820;SDS011;8527;49.740;6.604;2023-05-15T12:10:25;9.00;;;6.05;;
16820;SDS011;8527;49.740;6.604;2023-05-15T12:15:25;9.52;;;5.93;;
16820;SDS011;8527;49.740;6.604;2023-05-15T12:20:31;10.27;;;6.03;;
16820;SDS011;8527;49.740;6.604;2023-05-15T12:25:30;8.23;;;5.70;;
16820;SDS011;8527;49.740;6.604;2023-05-15T12:30:33;9.18;;;5.93;;
16820;SDS011;8527;49.740;6.604;2023-05-15T12:40:59;8.07;;;5.90;;
16820;SDS011;8527;49.740;6.604;2023-05-15T12:46:00;7.72;;;5.82;;
16820;SDS011;8527;49.740;6.604;2023-05-15T12:51:07;9.25;;;5.72;;
16820;SDS011;8527;49.740;6.604;2023-05-15T13:01:04;8.02;;;6.13;;
16820;SDS011;8527;49.740;6.604;2023-05-15T13:06:03;6.43;;;5.00;;
16820;SDS011;8527;49.740;6.604;2023-05-15T13:11:09;8.20;;;5.20;;
16820;SDS011;8527;49.740;6.604;2023-05-15T13:16:17;8.85;;;5.20;;
16820;SDS011;8527;49.740;6.604;2023-05-15T13:21:17;6.70;;;5.40;;
16820;SDS011;8527;49.740;6.604;2023-05-15T13:26:19;6.97;;;4.93;;
16820;SDS011;8527;49.740;6.604;2023-05-15T13:31:17;5.88;;;4.50;;
16820;SDS011;8527;49.740;6.604;2023-05-15T13:36:17;5.65;;;4.30;;
16820;SDS011;8527;49.740;6.604;2023-05-15T13:41:18;5.82;;;4.45;;
16820;SDS011;8527;49.740;6.604;2023-05-15T13:46:19;6.22;;;4.38;;
16820;SDS011;8527;49.740;6.604;2023-05-15T13:51:18;5.38;;;4.15;;
16820;SDS011;8527;49.740;6.604;2023-05-15T13:56:21;6.60;;;4.05;;
16820;SDS011;8527;49.740;6.604;2023-05-15T14:01:20;5.30;;;4.00;;
16820;SDS011;8527;49.740;6.604;2023-05-15T14:06:18;9.25;;;4.60;;
16820;SDS011;8527;49.740;6.604;2023-05-15T14:11:17;5.97;;;4.60;;
16820;SDS011;8527;49.740;6.604;2023-05-15T14:16:22;8.65;;;5.00;;
16820;SDS011;8527;49.740;6.604;2023-05-15T14:21:21;6.78;;;4.85;;
16820;SDS011;8527;49.740;6.604;2023-05-15T14:26:23;5.88;;;4.43;;
16820;SDS011;8527;49.740;6.604;2023-05-15T14:31:25;11.40;;;4.85;;
16820;SDS011;8527;49.740;6.604;2023-05-15T14:36:24;7.07;;;4.88;;
16820;SDS011;8527;49.740;6.604;2023-05-15T14:41:22;7.22;;;5.03;;
16820;SDS011;8527;49.740;6.604;2023-05-15T14:46:26;9.18;;;5.25;;
16820;SDS011;8527;49.740;6.604;2023-05-15T14:51:25;9.88;;;6.25;;
16820;SDS011;8527;49.740;6.604;2023-05-15T14:56:23;10.93;;;5.75;;
16820;SDS011;8527;49.740;6.604;2023-05-15T15:01:21;8.23;;;5.57;;
16820;SDS011;8527;49.740;6.604;2023-05-15T15:06:22;7.20;;;5.22;;
16820;SDS011;8527;49.740;6.604;2023-05-15T15:11:21;8.40;;;5.32;;
16820;SDS011;8527;49.740;6.604;2023-05-15T15:16:19;6.97;;;5.30;;
16820;SDS011;8527;49.740;6.604;2023-05-15T15:21:18;9.60;;;5.28;;
16820;SDS011;8527;49.740;6.604;2023-05-15T15:26:19;10.18;;;5.82;;
16820;SDS011;8527;49.740;6.604;2023-05-15T15:31:23;10.18;;;5.30;;
16820;SDS011;8527;49.740;6.604;2023-05-15T15:36:25;5.90;;;5.07;;
16820;SDS011;8527;49.740;6.604;2023-05-15T15:41:26;8.23;;;5.30;;
16820;SDS011;8527;49.740;6.604;2023-05-15T15:46:30;8.38;;;5.10;;
16820;SDS011;8527;49.740;6.604;2023-05-15T15:51:28;6.68;;;4.75;;
16820;SDS011;8527;49.740;6.604;2023-05-15T16:01:33;10.32;;;5.32;;
16820;SDS011;8527;49.740;6.604;2023-05-15T16:06:31;9.70;;;5.88;;
16820;SDS011;8527;49.740;6.604;2023-05-15T16:11:30;9.40;;;5.47;;
16820;SDS011;8527;49.740;6.604;2023-05-15T16:16:33;7.13;;;5.70;;
16820;SDS011;8527;49.740;6.604;2023-05-15T16:21:34;9.95;;;5.63;;
16820;SDS011;8527;49.740;6.604;2023-05-15T16:26:35;8.52;;;5.03;;
16820;SDS011;8527;49.740;6.604;2023-05-15T16:31:35;7.88;;;5.13;;
16820;SDS011;8527;49.740;6.604;2023-05-15T16:36:35;10.13;;;5.60;;
16820;SDS011;8527;49.740;6.604;2023-05-15T16:41:36;12.13;;;5.25;;
16820;SDS011;8527;49.740;6.604;2023-05-15T16:46:35;13.30;;;5.60;;
16820;SDS011;8527;49.740;6.604;2023-05-15T16:51:36;9.27;;;5.10;;
16820;SDS011;8527;49.740;6.604;2023-05-15T16:56:40;6.00;;;5.03;;
16820;SDS011;8527;49.740;6.604;2023-05-15T17:01:38;8.93;;;4.95;;
16820;SDS011;8527;49.740;6.604;2023-05-15T17:06:39;8.23;;;5.07;;
16820;SDS011;8527;49.740;6.604;2023-05-15T17:11:41;10.70;;;5.22;;
16820;SDS011;8527;49.740;6.604;2023-05-15T17:16:40;6.90;;;5.28;;
16820;SDS011;8527;49.740;6.604;2023-05-15T17:21:39;14.32;;;6.00;;
16820;SDS011;8527;49.740;6.604;2023-05-15T17:26:41;12.68;;;5.88;;
16820;SDS011;8527;49.740;6.604;2023-05-15T17:31:42;10.52;;;6.43;;
16820;SDS011;8527;49.740;6.604;2023-05-15T17:36:41;13.15;;;9.43;;
16820;SDS011;8527;49.740;6.604;2023-05-15T17:41:42;14.55;;;8.07;;
16820;SDS011;8527;49.740;6.604;2023-05-15T17:46:41;17.75;;;10.73;;
16820;SDS011;8527;49.740;6.604;2023-05-15T17:51:42;19.40;;;10.02;;
16820;SDS011;8527;49.740;6.604;2023-05-15T17:56:43;17.17;;;10.68;;
16820;SDS011;8527;49.740;6.604;2023-05-15T18:01:42;16.15;;;10.00;;
16820;SDS011;8527;49.740;6.604;2023-05-15T18:06:41;15.95;;;9.95;;
16820;SDS011;8527;49.740;6.604;2023-05-15T18:11:39;14.88;;;8.98;;
16820;SDS011;8527;49.740;6.604;2023-05-15T18:16:41;14.27;;;9.13;;
16820;SDS011;8527;49.740;6.604;2023-05-15T18:21:40;13.50;;;8.00;;
16820;SDS011;8527;49.740;6.604;2023-05-15T18:26:41;16.65;;;9.00;;
16820;SDS011;8527;49.740;6.604;2023-05-15T18:31:43;19.35;;;10.20;;
16820;SDS011;8527;49.740;6.604;2023-05-15T18:36:41;17.05;;;10.35;;
16820;SDS011;8527;49.740;6.604;2023-05-15T18:41:42;19.63;;;11.00;;
16820;SDS011;8527;49.740;6.604;2023-05-15T18:46:43;23.80;;;13.27;;
16820;SDS011;8527;49.740;6.604;2023-05-15T18:51:42;27.15;;;15.18;;
16820;SDS011;8527;49.740;6.604;2023-05-15T18:56:40;33.67;;;17.23;;
16820;SDS011;8527;49.740;6.604;2023-05-15T19:01:39;38.90;;;20.52;;
16820;SDS011;8527;49.740;6.604;2023-05-15T19:06:40;32.78;;;18.60;;
16820;SDS011;8527;49.740;6.604;2023-05-15T19:11:42;41.63;;;22.27;;
16820;SDS011;8527;49.740;6.604;2023-05-15T19:16:43;38.83;;;21.50;;
16820;SDS011;8527;49.740;6.604;2023-05-15T19:21:45;32.13;;;17.90;;
16820;SDS011;8527;49.740;6.604;2023-05-15T19:26:44;24.77;;;13.55;;
16820;SDS011;8527;49.740;6.604;2023-05-15T19:31:45;28.17;;;15.35;;
16820;SDS011;8527;49.740;6.604;2023-05-15T19:36:46;23.35;;;13.43;;
16820;SDS011;8527;49.740;6.604;2023-05-15T19:41:45;27.38;;;15.13;;
16820;SDS011;8527;49.740;6.604;2023-05-15T19:46:43;28.73;;;15.52;;
16820;SDS011;8527;49.740;6.604;2023-05-15T19:51:47;28.23;;;15.27;;
16820;SDS011;8527;49.740;6.604;2023-05-15T19:56:48;28.83;;;15.13;;
16820;SDS011;8527;49.740;6.604;2023-05-15T20:01:47;32.58;;;15.55;;
16820;SDS011;8527;49.740;6.604;2023-05-15T20:06:48;27.95;;;15.35;;
16820;SDS011;8527;49.740;6.604;2023-05-15T20:11:46;31.83;;;16.30;;
16820;SDS011;8527;49.740;6.604;2023-05-15T20:16:45;29.90;;;17.02;;
16820;SDS011;8527;49.740;6.604;2023-05-15T20:21:44;29.77;;;16.40;;
16820;SDS011;8527;49.740;6.604;2023-05-15T20:26:45;24.40;;;13.23;;
16820;SDS011;8527;49.740;6.604;2023-05-15T20:31:43;24.90;;;13.57;;
16820;SDS011;8527;49.740;6.604;2023-05-15T20:36:42;22.30;;;12.48;;
16820;SDS011;8527;49.740;6.604;2023-05-15T20:41:44;22.10;;;11.77;;
16820;SDS011;8527;49.740;6.604;2023-05-15T20:46:45;22.40;;;11.13;;
16820;SDS011;8527;49.740;6.604;2023-05-15T20:51:43;17.83;;;9.73;;
16820;SDS011;8527;49.740;6.604;2023-05-15T20:56:47;18.25;;;9.90;;
16820;SDS011;8527;49.740;6.604;2023-05-15T21:01:48;21.92;;;12.55;;
16820;SDS011;8527;49.740;6.604;2023-05-15T21:06:47;19.95;;;10.82;;
16820;SDS011;8527;49.740;6.604;2023-05-15T21:11:48;15.73;;;8.82;;
16820;SDS011;8527;49.740;6.604;2023-05-15T21:16:47;11.50;;;6.47;;
16820;SDS011;8527;49.740;6.604;2023-05-15T21:21:48;12.30;;;7.35;;
16820;SDS011;8527;49.740;6.604;2023-05-15T21:26:49;9.07;;;5.10;;
16820;SDS011;8527;49.740;6.604;2023-05-15T21:31:48;5.82;;;3.95;;
16820;SDS011;8527;49.740;6.604;2023-05-15T21:36:50;5.07;;;3.58;;
16820;SDS011;8527;49.740;6.604;2023-05-15T21:41:54;5.20;;;3.05;;
16820;SDS011;8527;49.740;6.604;2023-05-15T21:46:56;4.22;;;2.72;;
16820;SDS011;8527;49.740;6.604;2023-05-15T21:51:54;2.42;;;2.20;;
16820;SDS011;8527;49.740;6.604;2023-05-15T21:56:55;1.83;;;1.73;;
16820;SDS011;8527;49.740;6.604;2023-05-15T22:01:54;3.20;;;2.55;;
16820;SDS011;8527;49.740;6.604;2023-05-15T22:06:52;3.65;;;3.13;;
16820;SDS011;8527;49.740;6.604;2023-05-15T22:11:55;5.05;;;3.88;;
16820;SDS011;8527;49.740;6.604;2023-05-15T22:16:54;7.57;;;4.90;;
16820;SDS011;8527;49.740;6.604;2023-05-15T22:21:52;5.95;;;4.22;;
16820;SDS011;8527;49.740;6.604;2023-05-15T22:26:50;6.15;;;4.07;;
16820;SDS011;8527;49.740;6.604;2023-05-15T22:31:51;8.57;;;4.68;;
16820;SDS011;8527;49.740;6.604;2023-05-15T22:36:50;11.50;;;6.30;;
16820;SDS011;8527;49.740;6.604;2023-05-15T22:41:48;7.97;;;4.38;;
16820;SDS011;8527;49.740;6.604;2023-05-15T22:46:49;8.45;;;4.95;;
16820;SDS011;8527;49.740;6.604;2023-05-15T22:51:53;9.48;;;5.05;;
16820;SDS011;8527;49.740;6.604;2023-05-15T22:56:56;10.40;;;4.60;;
16820;SDS011;8527;49.740;6.604;2023-05-15T23:01:58;6.22;;;4.30;;
16820;SDS011;8527;49.740;6.604;2023-05-15T23:06:56;6.13;;;4.57;;
16820;SDS011;8527;49.740;6.604;2023-05-15T23:11:54;7.07;;;4.32;;
16820;SDS011;8527;49.740;6.604;2023-05-15T23:16:52;6.18;;;4.05;;
16820;SDS011;8527;49.740;6.604;2023-05-15T23:21:53;7.10;;;3.90;;
16820;SDS011;8527;49.740;6.604;2023-05-15T23:26:52;5.28;;;3.88;;
16820;SDS011;8527;49.740;6.604;2023-05-15T23:31:50;4.55;;;3.35;;
16820;SDS011;8527;49.740;6.604;2023-05-15T23:36:49;4.38;;;3.50;;
16820;SDS011;8527;49.740;6.604;2023-05-15T23:41:50;4.88;;;3.22;;
16820;SDS011;8527;49.740;6.604;2023-05-15T23:46:49;5.88;;;3.35;;
16820;SDS011;8527;49.740;6.604;2023-05-15T23:51:48;8.68;;;3.50;;
16820;SDS011;8527;49.740;6.604;2023-05-15T23:56:46;8.45;;;3.83;;
